Time;durP1;ratioP1;P1;durP2;ratioP2;P2;SDS_P1;SDS_P2;PMS_P1;PMS_P2;Temp;Humidity;BMP_temperature;BMP_pressure;BME280_temperature;BME280_humidity;BME280_pressure;Samples;Min_cycle;Max_cycle;Signal;HPM_P1;HPM_P2
2022/12/28 17:01:57;;;;;;;11.48;6.47;;;7.80;99.90;;;;;;5010404;28;20053;-68
2022/12/28 17:04:23;;;;;;;11.18;5.20;;;8.70;99.90;;;;;;4953244;28;20056;-67
2022/12/28 17:06:50;;;;;;;6.78;5.22;;;8.60;99.90;;;;;;4964549;28;20042;-69
2022/12/28 17:09:16;;;;;;;9.73;5.28;;;9.00;99.90;;;;;;4977871;28;20530;-69
2022/12/28 17:11:45;;;;;;;11.57;6.57;;;8.40;99.90;;;;;;4996529;28;20381;-68
2022/12/28 17:14:11;;;;;;;11.40;5.72;;;8.90;99.90;;;;;;4979928;28;20096;-69
2022/12/28 17:16:37;;;;;;;11.38;5.82;;;8.80;99.90;;;;;;4976169;28;20112;-68
2022/12/28 17:19:03;;;;;;;9.40;5.15;;;9.00;99.90;;;;;;4978056;28;20384;-68
2022/12/28 17:21:31;;;;;;;11.75;4.97;;;8.80;99.90;;;;;;4946114;28;20049;-68
2022/12/28 17:23:57;;;;;;;12.75;4.47;;;8.30;99.90;;;;;;4977302;28;20040;-68
2022/12/28 17:26:23;;;;;;;10.68;5.22;;;8.90;99.90;;;;;;4980667;28;20045;-69
2022/12/28 17:28:49;;;;;;;8.82;4.85;;;8.90;99.90;;;;;;4956120;28;20039;-68
2022/12/28 17:31:17;;;;;;;10.85;5.25;;;8.00;99.90;;;;;;4981814;28;20534;-69
2022/12/28 17:33:45;;;;;;;10.48;5.07;;;8.10;99.90;;;;;;4982243;28;20116;-69
2022/12/28 17:36:10;;;;;;;9.07;3.50;;;8.00;99.90;;;;;;4981296;28;20099;-68
2022/12/28 17:38:36;;;;;;;8.85;4.65;;;7.80;99.90;;;;;;4964699;28;20050;-69
2022/12/28 17:41:10;;;;;;;7.50;3.72;;;7.70;99.90;;;;;;4954747;28;20636;-69
2022/12/28 17:43:36;;;;;;;12.82;5.15;;;8.60;99.90;;;;;;4980673;28;20112;-69
2022/12/28 17:46:02;;;;;;;10.55;4.95;;;8.90;99.90;;;;;;4981941;28;20674;-70
2022/12/28 17:48:29;;;;;;;9.90;4.00;;;7.90;99.90;;;;;;4955442;28;20114;-68
2022/12/28 17:50:57;;;;;;;6.43;3.55;;;8.00;99.90;;;;;;4965414;28;20749;-67
2022/12/28 17:53:24;;;;;;;7.07;3.85;;;7.70;99.90;;;;;;4953257;28;20038;-68
2022/12/28 17:55:49;;;;;;;9.10;3.55;;;8.80;99.90;;;;;;4954120;28;20145;-67
2022/12/28 17:58:15;;;;;;;8.35;4.00;;;8.90;99.90;;;;;;4972700;28;20105;-68
2022/12/28 18:00:41;;;;;;;8.13;4.43;;;8.00;99.90;;;;;;4966069;28;20391;-70
2022/12/28 18:03:06;;;;;;;8.45;4.05;;;7.70;99.90;;;;;;4953062;28;20092;-68
2022/12/28 18:05:33;;;;;;;8.88;3.70;;;7.90;99.90;;;;;;4956901;28;20046;-68
2022/12/28 18:07:59;;;;;;;7.50;3.35;;;8.20;99.90;;;;;;4967395;28;20535;-69
2022/12/28 18:10:25;;;;;;;8.90;3.47;;;7.80;99.90;;;;;;5001349;28;20125;-67
2022/12/28 18:12:51;;;;;;;8.30;3.33;;;8.50;99.90;;;;;;4966289;28;20042;-67
2022/12/28 18:15:17;;;;;;;8.40;3.20;;;8.30;99.90;;;;;;4982652;28;20034;-68
2022/12/28 18:17:42;;;;;;;7.38;3.95;;;8.80;99.90;;;;;;4972710;28;20065;-68
2022/12/28 18:20:08;;;;;;;6.72;3.38;;;8.30;99.90;;;;;;4981814;28;20128;-68
2022/12/28 18:22:34;;;;;;;7.63;4.15;;;8.50;99.90;;;;;;4932826;28;20053;-69
2022/12/28 18:25:00;;;;;;;10.45;4.22;;;8.50;99.90;;;;;;4956911;28;20355;-70
2022/12/28 18:27:26;;;;;;;8.10;4.05;;;8.30;99.90;;;;;;4980714;28;20491;-70
2022/12/28 18:29:51;;;;;;;8.05;3.88;;;7.50;99.90;;;;;;4965214;28;20084;-68
2022/12/28 18:32:17;;;;;;;7.93;4.03;;;8.70;99.90;;;;;;4997851;28;20042;-68
2022/12/28 18:34:43;;;;;;;5.30;2.60;;;8.50;99.90;;;;;;4965525;28;20113;-68
2022/12/28 18:37:09;;;;;;;12.68;4.10;;;8.70;99.90;;;;;;4972130;28;20046;-68
2022/12/28 18:39:35;;;;;;;9.63;4.10;;;8.50;99.90;;;;;;4973215;28;20374;-68
2022/12/28 18:42:01;;;;;;;9.30;3.22;;;8.10;99.90;;;;;;4967370;28;20058;-67
2022/12/28 18:44:27;;;;;;;6.53;3.20;;;8.50;99.90;;;;;;4965408;28;20033;-69
2022/12/28 18:46:53;;;;;;;6.65;3.78;;;7.70;99.90;;;;;;5000239;28;20034;-68
2022/12/28 18:49:18;;;;;;;7.28;3.22;;;8.50;99.90;;;;;;4972915;28;20400;-67
2022/12/28 18:51:47;;;;;;;6.45;3.35;;;8.10;99.90;;;;;;4982127;28;20120;-67
2022/12/28 18:54:13;;;;;;;7.63;3.55;;;7.60;99.90;;;;;;4981176;28;20124;-67
2022/12/28 18:56:38;;;;;;;7.45;2.85;;;8.00;99.90;;;;;;4982002;28;20164;-67
2022/12/28 18:59:04;;;;;;;5.68;3.22;;;8.40;99.90;;;;;;4988261;28;20415;-68
2022/12/28 19:01:30;;;;;;;10.15;4.30;;;7.60;99.90;;;;;;4981357;28;20116;-67
2022/12/28 19:03:57;;;;;;;7.22;3.60;;;7.50;99.90;;;;;;4981340;28;20054;-68
2022/12/28 19:06:28;;;;;;;6.05;3.55;;;8.10;99.90;;;;;;4965750;28;20073;-67
2022/12/28 19:08:58;;;;;;;8.65;3.95;;;7.80;99.90;;;;;;4981149;28;20116;-68
2022/12/28 19:11:23;;;;;;;7.32;3.90;;;7.50;99.90;;;;;;4982969;28;20050;-68
2022/12/28 19:13:49;;;;;;;6.10;3.22;;;8.40;99.90;;;;;;4982213;28;20095;-67
2022/12/28 19:16:17;;;;;;;4.20;3.40;;;8.60;99.90;;;;;;4954375;28;20080;-69
2022/12/28 19:18:43;;;;;;;11.30;4.68;;;8.20;99.90;;;;;;4969008;28;20100;-69
2022/12/28 19:21:31;;;;;;;7.57;4.50;;;8.30;99.90;;;;;;4965423;28;20042;-70
2022/12/28 19:24:01;;;;;;;5.57;3.00;;;7.90;99.90;;;;;;4999195;28;20054;-66
2022/12/28 19:26:28;;;;;;;6.03;4.60;;;8.50;99.90;;;;;;4964162;28;20400;-66
2022/12/28 19:28:54;;;;;;;5.35;3.90;;;7.50;99.90;;;;;;4968613;28;20148;-67
2022/12/28 19:31:20;;;;;;;7.25;4.68;;;7.80;99.90;;;;;;4982041;28;20038;-67
2022/12/28 19:33:46;;;;;;;7.70;4.65;;;7.60;99.90;;;;;;4963811;28;20069;-67
2022/12/28 19:36:11;;;;;;;8.45;5.82;;;7.60;99.90;;;;;;4980523;28;20435;-68
2022/12/28 19:38:37;;;;;;;9.90;5.90;;;7.50;99.90;;;;;;4980067;28;20094;-68
2022/12/28 19:41:09;;;;;;;6.93;5.38;;;7.50;99.90;;;;;;4964970;28;20049;-67
2022/12/28 19:43:35;;;;;;;8.43;6.35;;;7.60;99.90;;;;;;4964868;28;20060;-68
2022/12/28 19:46:07;;;;;;;8.40;6.70;;;8.30;99.90;;;;;;4954052;28;20038;-67
2022/12/28 19:48:33;;;;;;;8.20;6.80;;;8.30;99.90;;;;;;4980141;28;20050;-67
2022/12/28 19:50:59;;;;;;;9.77;7.22;;;7.70;99.90;;;;;;4963972;28;20395;-67
2022/12/28 19:53:27;;;;;;;9.82;7.15;;;7.60;99.90;;;;;;4965025;28;20046;-66
2022/12/28 19:56:13;;;;;;;9.73;7.18;;;7.90;99.90;;;;;;4966741;28;20049;-67
2022/12/28 19:58:39;;;;;;;10.15;6.90;;;7.80;99.90;;;;;;4979674;28;20054;-68
2022/12/28 20:01:07;;;;;;;9.38;6.80;;;8.70;99.90;;;;;;4962535;28;20066;-69
2022/12/28 20:03:33;;;;;;;5.57;5.03;;;7.90;99.90;;;;;;4980103;28;20046;-69
2022/12/28 20:06:14;;;;;;;10.43;7.10;;;8.70;99.90;;;;;;4979915;28;20030;-68
2022/12/28 20:08:44;;;;;;;9.23;8.02;;;7.90;99.90;;;;;;4954185;28;20104;-70
2022/12/28 20:11:10;;;;;;;7.85;6.40;;;7.70;99.90;;;;;;4950682;28;20608;-67
2022/12/28 20:13:35;;;;;;;8.15;6.47;;;7.80;99.90;;;;;;4965120;28;20046;-69
2022/12/28 20:16:01;;;;;;;9.68;8.50;;;7.70;99.90;;;;;;4980705;28;20108;-71
2022/12/28 20:18:27;;;;;;;8.45;6.68;;;7.80;99.90;;;;;;4980963;28;20042;-68
2022/12/28 20:21:02;;;;;;;8.75;7.85;;;8.80;99.90;;;;;;4965188;28;20484;-69
2022/12/28 20:23:28;;;;;;;9.38;7.90;;;8.00;99.90;;;;;;4978552;28;20140;-70
2022/12/28 20:25:54;;;;;;;7.57;6.93;;;8.90;99.90;;;;;;4998724;28;20069;-68
2022/12/28 20:28:21;;;;;;;55.53;33.45;;;8.70;99.90;;;;;;4981912;28;20077;-69
2022/12/28 20:30:47;;;;;;;7.00;6.30;;;8.70;99.90;;;;;;4965060;28;20033;-70
2022/12/28 20:33:13;;;;;;;7.25;6.28;;;7.90;99.90;;;;;;4997036;28;20112;-70
2022/12/28 20:35:40;;;;;;;6.93;5.95;;;7.80;99.90;;;;;;4963378;28;20050;-68
2022/12/28 20:38:08;;;;;;;8.65;7.00;;;8.10;99.90;;;;;;4947467;28;20077;-70
2022/12/28 20:40:34;;;;;;;8.32;6.40;;;8.70;99.90;;;;;;4996997;28;20041;-70
2022/12/28 20:45:45;;;;;;;8.15;6.13;;;8.30;99.90;;;;;;4978480;28;20107;-66
2022/12/28 20:48:10;;;;;;;8.82;6.88;;;8.20;99.90;;;;;;4980341;28;20038;-68
2022/12/28 20:50:36;;;;;;;7.75;6.88;;;7.90;99.90;;;;;;4954348;28;20041;-67
2022/12/28 20:53:02;;;;;;;10.43;7.35;;;9.00;99.90;;;;;;4963545;28;20132;-66
2022/12/28 20:55:27;;;;;;;6.03;5.43;;;7.80;99.90;;;;;;4961237;28;20046;-66
2022/12/28 20:57:53;;;;;;;8.40;7.47;;;8.00;99.90;;;;;;4979916;28;20061;-67
2022/12/28 21:00:19;;;;;;;7.95;6.60;;;9.00;99.90;;;;;;4963255;28;20065;-67
2022/12/28 21:02:45;;;;;;;8.48;7.60;;;8.20;99.90;;;;;;4956663;28;20064;-69
2022/12/28 21:05:11;;;;;;;5.20;4.68;;;8.90;99.90;;;;;;4984762;28;20044;-67
2022/12/28 21:07:36;;;;;;;7.90;7.13;;;8.90;99.90;;;;;;4957432;28;20034;-67
2022/12/28 21:10:02;;;;;;;6.90;6.30;;;8.00;99.90;;;;;;4956787;28;20045;-68
2022/12/28 21:12:28;;;;;;;4.88;4.43;;;9.10;99.90;;;;;;4965445;28;20116;-68
2022/12/28 21:14:54;;;;;;;7.97;7.38;;;8.50;99.90;;;;;;5000032;28;20085;-68
2022/12/28 21:17:19;;;;;;;9.10;6.93;;;9.20;99.90;;;;;;4981902;28;20045;-68
2022/12/28 21:19:46;;;;;;;9.02;8.13;;;9.00;99.90;;;;;;4967123;28;20045;-68
2022/12/28 21:22:12;;;;;;;9.35;8.45;;;8.20;99.90;;;;;;4981070;28;20141;-69
2022/12/28 21:24:38;;;;;;;8.10;6.45;;;8.10;99.90;;;;;;4964879;28;20061;-69
2022/12/28 21:27:04;;;;;;;6.32;5.72;;;8.10;99.90;;;;;;4980902;28;20802;-68
2022/12/28 21:29:29;;;;;;;6.50;6.00;;;8.90;99.90;;;;;;4979438;28;20762;-69
2022/12/28 21:31:55;;;;;;;6.28;5.68;;;8.20;99.90;;;;;;4980887;28;20049;-68
2022/12/28 21:34:22;;;;;;;7.85;7.05;;;8.70;99.90;;;;;;4999155;28;20588;-67
2022/12/28 21:36:48;;;;;;;8.02;7.25;;;8.20;99.90;;;;;;4948642;28;20599;-69
2022/12/28 21:39:13;;;;;;;8.70;7.88;;;8.30;99.90;;;;;;4980482;28;20070;-69
2022/12/28 21:41:48;;;;;;;8.05;6.68;;;8.30;99.90;;;;;;4981024;28;20128;-69
2022/12/28 21:44:23;;;;;;;7.50;6.82;;;8.80;99.90;;;;;;4963992;28;21243;-70
2022/12/28 21:46:50;;;;;;;6.93;6.32;;;9.50;99.90;;;;;;4996484;28;20077;-69
2022/12/28 21:49:16;;;;;;;7.55;6.75;;;8.60;99.90;;;;;;4980238;28;20042;-69
2022/12/28 21:51:42;;;;;;;5.60;5.10;;;9.40;99.90;;;;;;4980747;28;20041;-67
2022/12/28 21:54:12;;;;;;;6.53;5.93;;;9.00;99.90;;;;;;4965144;28;20050;-69
2022/12/28 21:56:39;;;;;;;6.25;5.70;;;8.50;99.90;;;;;;4980896;28;20046;-69
2022/12/28 21:59:05;;;;;;;6.85;5.72;;;8.70;99.90;;;;;;4981129;28;20086;-67
2022/12/28 22:07:04;;;;;;;6.55;5.95;;;8.80;99.90;;;;;;4980631;28;20069;-69
2022/12/28 22:17:52;;;;;;;6.32;5.72;;;9.00;99.90;;;;;;4979868;28;20052;-68
2022/12/28 22:20:18;;;;;;;7.35;6.60;;;9.60;99.90;;;;;;4961009;28;20500;-68
2022/12/28 22:22:44;;;;;;;6.50;5.85;;;9.60;99.90;;;;;;4951440;28;20112;-69
2022/12/28 22:25:11;;;;;;;5.53;5.13;;;9.30;99.90;;;;;;4922166;28;20042;-70
2022/12/28 22:27:37;;;;;;;6.18;5.47;;;9.70;99.90;;;;;;4964196;28;20056;-70
2022/12/28 22:30:04;;;;;;;6.72;6.07;;;8.90;99.90;;;;;;4954806;28;20068;-67
2022/12/28 22:32:30;;;;;;;6.70;6.00;;;8.80;99.90;;;;;;4980300;28;20116;-67
2022/12/28 22:34:55;;;;;;;6.97;6.38;;;8.80;99.90;;;;;;4975310;28;20073;-70
2022/12/28 22:37:21;;;;;;;6.00;5.13;;;9.50;99.90;;;;;;4954103;28;20107;-70
2022/12/28 22:39:47;;;;;;;5.65;5.15;;;8.80;99.90;;;;;;4979490;28;20475;-70
2022/12/28 22:42:14;;;;;;;5.22;4.80;;;8.90;99.90;;;;;;4979338;28;20487;-69
2022/12/28 22:44:40;;;;;;;5.18;4.75;;;9.20;99.90;;;;;;4948054;28;20135;-68
2022/12/28 22:47:07;;;;;;;6.18;5.60;;;9.80;99.90;;;;;;4969961;28;20042;-68
2022/12/28 22:49:32;;;;;;;5.75;5.25;;;9.90;99.90;;;;;;4979731;28;20508;-68
2022/12/28 22:51:58;;;;;;;6.25;5.65;;;9.90;99.90;;;;;;4950296;28;20042;-70
2022/12/28 22:54:24;;;;;;;7.00;6.40;;;10.00;99.90;;;;;;4971588;28;20484;-67
2022/12/28 22:56:49;;;;;;;6.75;6.15;;;9.70;99.90;;;;;;4979125;28;20045;-67
2022/12/28 22:59:15;;;;;;;6.43;5.72;;;8.90;99.90;;;;;;4979654;28;20045;-67
2022/12/28 23:01:42;;;;;;;6.78;5.47;;;9.00;99.90;;;;;;4997525;28;20109;-66
2022/12/28 23:04:08;;;;;;;5.45;5.00;;;9.80;99.90;;;;;;4949295;28;20046;-66
2022/12/28 23:06:33;;;;;;;7.40;6.70;;;9.50;99.90;;;;;;4981223;28;20511;-66
2022/12/28 23:08:59;;;;;;;7.72;6.93;;;9.90;99.90;;;;;;4936952;28;20553;-67
2022/12/28 23:11:37;;;;;;;7.50;6.80;;;9.70;99.90;;;;;;4964745;28;20055;-67
2022/12/28 23:16:52;;;;;;;6.70;6.20;;;9.80;99.90;;;;;;4996945;28;20233;-67
2022/12/28 23:27:41;;;;;;;5.28;4.75;;;9.00;99.90;;;;;;4997762;28;20290;-67
2022/12/28 23:30:09;;;;;;;5.97;5.47;;;9.80;99.90;;;;;;4979337;28;20415;-67
2022/12/28 23:32:35;;;;;;;5.82;5.32;;;9.00;99.90;;;;;;4962862;28;20042;-66
2022/12/28 23:35:02;;;;;;;4.82;4.45;;;9.70;99.90;;;;;;4979492;28;20424;-66
2022/12/28 23:37:28;;;;;;;4.97;4.45;;;9.00;99.90;;;;;;4979881;28;20421;-66
2022/12/28 23:39:54;;;;;;;5.07;4.68;;;9.70;99.90;;;;;;4978434;28;20604;-67
2022/12/28 23:42:20;;;;;;;4.47;4.07;;;9.90;99.90;;;;;;4962606;28;20046;-66
2022/12/28 23:44:47;;;;;;;4.65;4.20;;;9.50;99.90;;;;;;4978328;28;20111;-67
2022/12/28 23:47:15;;;;;;;5.55;4.35;;;9.40;99.90;;;;;;4963225;28;20117;-68
2022/12/28 23:49:41;;;;;;;4.43;3.83;;;9.40;99.90;;;;;;4978693;28;20053;-69
2022/12/28 23:52:06;;;;;;;6.13;4.18;;;10.00;99.90;;;;;;4979519;28;20041;-68
2022/12/28 23:54:32;;;;;;;4.30;4.00;;;9.20;99.90;;;;;;4971228;28;20042;-68
2022/12/28 23:56:58;;;;;;;6.45;3.80;;;9.30;99.90;;;;;;4979113;28;20373;-68
2022/12/28 23:59:23;;;;;;;3.63;3.35;;;9.40;99.90;;;;;;4962519;28;20037;-68
